sensor_id;sensor_type;location;lat;lon;timestamp;P1;durP1;ratioP1;P2;durP2;ratioP2
69083;SDS011;56185;48.526;9.044;2023-07-08T00:01:12;9.77;;;4.97;;
69083;SDS011;56185;48.526;9.044;2023-07-08T00:03:39;10.48;;;5.63;;
69083;SDS011;56185;48.526;9.044;2023-07-08T00:06:04;8.02;;;5.07;;
69083;SDS011;56185;48.526;9.044;2023-07-08T00:08:41;8.32;;;5.15;;
69083;SDS011;56185;48.526;9.044;2023-07-08T00:11:10;8.93;;;5.17;;
69083;SDS011;56185;48.526;9.044;2023-07-08T00:13:36;9.93;;;5.15;;
69083;SDS011;56185;48.526;9.044;2023-07-08T00:16:01;9.03;;;5.10;;
69083;SDS011;56185;48.526;9.044;2023-07-08T00:18:27;10.00;;;5.13;;
69083;SDS011;56185;48.526;9.044;2023-07-08T00:20:52;8.57;;;5.57;;
69083;SDS011;56185;48.526;9.044;2023-07-08T00:23:17;8.70;;;5.40;;
69083;SDS011;56185;48.526;9.044;2023-07-08T00:25:43;9.27;;;5.17;;
69083;SDS011;56185;48.526;9.044;2023-07-08T00:28:12;8.67;;;5.17;;
69083;SDS011;56185;48.526;9.044;2023-07-08T00:30:40;10.80;;;5.10;;
69083;SDS011;56185;48.526;9.044;2023-07-08T00:33:06;8.52;;;4.95;;
69083;SDS011;56185;48.526;9.044;2023-07-08T00:38:00;7.65;;;4.75;;
69083;SDS011;56185;48.526;9.044;2023-07-08T00:40:27;9.50;;;5.15;;
69083;SDS011;56185;48.526;9.044;2023-07-08T00:42:54;8.25;;;5.10;;
69083;SDS011;56185;48.526;9.044;2023-07-08T00:48:03;11.50;;;5.10;;
69083;SDS011;56185;48.526;9.044;2023-07-08T00:50:32;7.93;;;4.88;;
69083;SDS011;56185;48.526;9.044;2023-07-08T00:56:00;9.85;;;5.38;;
69083;SDS011;56185;48.526;9.044;2023-07-08T00:58:31;8.13;;;4.60;;
69083;SDS011;56185;48.526;9.044;2023-07-08T01:00:59;11.18;;;5.00;;
69083;SDS011;56185;48.526;9.044;2023-07-08T01:03:28;8.63;;;4.85;;
69083;SDS011;56185;48.526;9.044;2023-07-08T01:05:54;9.50;;;4.90;;
69083;SDS011;56185;48.526;9.044;2023-07-08T01:08:22;9.68;;;4.85;;
69083;SDS011;56185;48.526;9.044;2023-07-08T01:10:49;9.33;;;4.97;;
69083;SDS011;56185;48.526;9.044;2023-07-08T01:13:17;9.15;;;4.85;;
69083;SDS011;56185;48.526;9.044;2023-07-08T01:15:46;11.20;;;4.80;;
69083;SDS011;56185;48.526;9.044;2023-07-08T01:18:12;8.57;;;5.43;;
69083;SDS011;56185;48.526;9.044;2023-07-08T01:20:39;8.55;;;5.22;;
69083;SDS011;56185;48.526;9.044;2023-07-08T01:23:05;9.60;;;5.18;;
69083;SDS011;56185;48.526;9.044;2023-07-08T01:25:30;7.90;;;5.07;;
69083;SDS011;56185;48.526;9.044;2023-07-08T01:27:56;7.78;;;4.82;;
69083;SDS011;56185;48.526;9.044;2023-07-08T01:30:23;7.93;;;4.70;;
69083;SDS011;56185;48.526;9.044;2023-07-08T01:32:49;7.47;;;4.75;;
69083;SDS011;56185;48.526;9.044;2023-07-08T01:35:19;8.35;;;4.88;;
69083;SDS011;56185;48.526;9.044;2023-07-08T01:37:50;8.20;;;4.88;;
69083;SDS011;56185;48.526;9.044;2023-07-08T01:40:26;11.27;;;5.68;;
69083;SDS011;56185;48.526;9.044;2023-07-08T01:42:52;10.15;;;5.18;;
69083;SDS011;56185;48.526;9.044;2023-07-08T01:45:19;10.70;;;5.00;;
69083;SDS011;56185;48.526;9.044;2023-07-08T01:50:32;10.32;;;5.20;;
69083;SDS011;56185;48.526;9.044;2023-07-08T01:53:00;8.85;;;4.85;;
69083;SDS011;56185;48.526;9.044;2023-07-08T01:55:29;9.73;;;4.88;;
69083;SDS011;56185;48.526;9.044;2023-07-08T01:57:55;9.53;;;5.23;;
69083;SDS011;56185;48.526;9.044;2023-07-08T02:00:20;9.10;;;5.15;;
69083;SDS011;56185;48.526;9.044;2023-07-08T02:02:47;9.20;;;5.10;;
69083;SDS011;56185;48.526;9.044;2023-07-08T02:05:13;9.77;;;5.20;;
69083;SDS011;56185;48.526;9.044;2023-07-08T02:07:38;11.65;;;4.95;;
69083;SDS011;56185;48.526;9.044;2023-07-08T02:10:03;8.67;;;4.90;;
69083;SDS011;56185;48.526;9.044;2023-07-08T02:12:29;9.95;;;5.38;;
69083;SDS011;56185;48.526;9.044;2023-07-08T02:14:55;7.72;;;4.70;;
69083;SDS011;56185;48.526;9.044;2023-07-08T02:17:20;12.77;;;4.80;;
69083;SDS011;56185;48.526;9.044;2023-07-08T02:19:45;7.33;;;4.90;;
69083;SDS011;56185;48.526;9.044;2023-07-08T02:22:10;8.93;;;5.37;;
69083;SDS011;56185;48.526;9.044;2023-07-08T02:24:35;10.40;;;5.00;;
69083;SDS011;56185;48.526;9.044;2023-07-08T02:27:01;9.47;;;4.90;;
69083;SDS011;56185;48.526;9.044;2023-07-08T02:29:26;8.87;;;5.10;;
69083;SDS011;56185;48.526;9.044;2023-07-08T02:31:51;9.60;;;5.10;;
69083;SDS011;56185;48.526;9.044;2023-07-08T02:34:17;7.83;;;4.70;;
69083;SDS011;56185;48.526;9.044;2023-07-08T02:36:42;8.93;;;4.85;;
69083;SDS011;56185;48.526;9.044;2023-07-08T02:39:08;8.38;;;5.03;;
69083;SDS011;56185;48.526;9.044;2023-07-08T02:41:33;9.13;;;5.17;;
69083;SDS011;56185;48.526;9.044;2023-07-08T02:43:58;8.63;;;5.00;;
69083;SDS011;56185;48.526;9.044;2023-07-08T02:46:23;9.77;;;5.50;;
69083;SDS011;56185;48.526;9.044;2023-07-08T02:48:48;10.17;;;5.33;;
69083;SDS011;56185;48.526;9.044;2023-07-08T02:51:14;8.07;;;4.77;;
69083;SDS011;56185;48.526;9.044;2023-07-08T02:53:39;9.90;;;5.15;;
69083;SDS011;56185;48.526;9.044;2023-07-08T02:56:04;8.97;;;5.13;;
69083;SDS011;56185;48.526;9.044;2023-07-08T02:58:29;12.10;;;5.37;;
69083;SDS011;56185;48.526;9.044;2023-07-08T03:00:55;8.20;;;4.90;;
69083;SDS011;56185;48.526;9.044;2023-07-08T03:03:21;8.55;;;5.22;;
69083;SDS011;56185;48.526;9.044;2023-07-08T03:06:20;12.52;;;5.55;;
69083;SDS011;56185;48.526;9.044;2023-07-08T03:08:38;8.75;;;4.85;;
69083;SDS011;56185;48.526;9.044;2023-07-08T03:11:05;7.95;;;4.72;;
69083;SDS011;56185;48.526;9.044;2023-07-08T03:13:32;9.48;;;5.20;;
69083;SDS011;56185;48.526;9.044;2023-07-08T03:15:58;9.18;;;5.18;;
69083;SDS011;56185;48.526;9.044;2023-07-08T03:18:25;10.45;;;5.22;;
69083;SDS011;56185;48.526;9.044;2023-07-08T03:20:50;11.50;;;5.47;;
69083;SDS011;56185;48.526;9.044;2023-07-08T03:23:15;9.50;;;4.77;;
69083;SDS011;56185;48.526;9.044;2023-07-08T03:25:41;8.43;;;4.90;;
69083;SDS011;56185;48.526;9.044;2023-07-08T03:28:06;10.87;;;5.20;;
69083;SDS011;56185;48.526;9.044;2023-07-08T03:30:32;8.57;;;4.82;;
69083;SDS011;56185;48.526;9.044;2023-07-08T03:32:58;10.38;;;4.90;;
69083;SDS011;56185;48.526;9.044;2023-07-08T03:35:24;6.78;;;4.70;;
69083;SDS011;56185;48.526;9.044;2023-07-08T03:37:49;8.57;;;4.90;;
69083;SDS011;56185;48.526;9.044;2023-07-08T03:40:14;9.30;;;5.20;;
69083;SDS011;56185;48.526;9.044;2023-07-08T03:42:39;9.43;;;5.00;;
69083;SDS011;56185;48.526;9.044;2023-07-08T03:45:05;9.07;;;5.10;;
69083;SDS011;56185;48.526;9.044;2023-07-08T03:47:30;8.88;;;5.05;;
69083;SDS011;56185;48.526;9.044;2023-07-08T03:49:56;9.13;;;5.10;;
69083;SDS011;56185;48.526;9.044;2023-07-08T03:52:21;11.73;;;5.40;;
69083;SDS011;56185;48.526;9.044;2023-07-08T03:54:46;9.57;;;5.20;;
69083;SDS011;56185;48.526;9.044;2023-07-08T03:57:12;8.57;;;5.30;;
69083;SDS011;56185;48.526;9.044;2023-07-08T03:59:37;15.82;;;5.15;;
69083;SDS011;56185;48.526;9.044;2023-07-08T04:02:03;9.20;;;5.00;;
69083;SDS011;56185;48.526;9.044;2023-07-08T04:04:28;8.68;;;4.93;;
69083;SDS011;56185;48.526;9.044;2023-07-08T04:06:54;9.68;;;5.05;;
69083;SDS011;56185;48.526;9.044;2023-07-08T04:09:19;12.20;;;5.73;;
69083;SDS011;56185;48.526;9.044;2023-07-08T04:11:44;8.77;;;5.47;;
69083;SDS011;56185;48.526;9.044;2023-07-08T04:14:09;11.97;;;5.87;;
69083;SDS011;56185;48.526;9.044;2023-07-08T04:19:15;8.80;;;4.82;;
69083;SDS011;56185;48.526;9.044;2023-07-08T05:20:14;9.38;;;5.45;;
69083;SDS011;56185;48.526;9.044;2023-07-08T05:26:30;12.77;;;5.28;;
69083;SDS011;56185;48.526;9.044;2023-07-08T12:36:35;3.28;;;1.50;;
69083;SDS011;56185;48.526;9.044;2023-07-08T12:39:01;3.28;;;1.40;;
69083;SDS011;56185;48.526;9.044;2023-07-08T12:41:31;2.97;;;1.50;;
69083;SDS011;56185;48.526;9.044;2023-07-08T12:43:58;3.28;;;1.55;;
69083;SDS011;56185;48.526;9.044;2023-07-08T12:46:24;4.03;;;1.80;;
69083;SDS011;56185;48.526;9.044;2023-07-08T12:48:50;4.50;;;1.95;;
69083;SDS011;56185;48.526;9.044;2023-07-08T12:51:17;3.00;;;1.50;;
69083;SDS011;56185;48.526;9.044;2023-07-08T12:53:44;4.15;;;1.63;;
69083;SDS011;56185;48.526;9.044;2023-07-08T12:56:10;2.80;;;1.48;;
69083;SDS011;56185;48.526;9.044;2023-07-08T12:58:41;3.90;;;1.38;;
69083;SDS011;56185;48.526;9.044;2023-07-08T13:01:11;2.45;;;1.23;;
69083;SDS011;56185;48.526;9.044;2023-07-08T13:03:43;3.00;;;1.58;;
69083;SDS011;56185;48.526;9.044;2023-07-08T13:06:10;2.30;;;1.40;;
69083;SDS011;56185;48.526;9.044;2023-07-08T13:08:37;2.78;;;1.40;;
69083;SDS011;56185;48.526;9.044;2023-07-08T13:11:04;4.28;;;1.70;;
69083;SDS011;56185;48.526;9.044;2023-07-08T13:13:31;2.33;;;1.33;;
69083;SDS011;56185;48.526;9.044;2023-07-08T13:16:09;3.95;;;1.60;;
69083;SDS011;56185;48.526;9.044;2023-07-08T13:18:39;2.42;;;1.27;;
69083;SDS011;56185;48.526;9.044;2023-07-08T13:21:08;2.97;;;1.50;;
69083;SDS011;56185;48.526;9.044;2023-07-08T13:23:39;3.72;;;1.40;;
69083;SDS011;56185;48.526;9.044;2023-07-08T13:26:43;3.65;;;1.60;;
69083;SDS011;56185;48.526;9.044;2023-07-08T13:29:18;3.38;;;1.50;;
69083;SDS011;56185;48.526;9.044;2023-07-08T13:31:47;2.00;;;1.30;;
69083;SDS011;56185;48.526;9.044;2023-07-08T13:34:23;3.03;;;1.60;;
69083;SDS011;56185;48.526;9.044;2023-07-08T13:36:52;3.03;;;1.40;;
69083;SDS011;56185;48.526;9.044;2023-07-08T13:39:29;3.42;;;1.50;;
69083;SDS011;56185;48.526;9.044;2023-07-08T13:41:57;2.35;;;1.40;;
69083;SDS011;56185;48.526;9.044;2023-07-08T13:44:23;2.95;;;1.60;;
69083;SDS011;56185;48.526;9.044;2023-07-08T13:46:56;3.25;;;1.70;;
69083;SDS011;56185;48.526;9.044;2023-07-08T13:51:55;3.15;;;1.42;;
69083;SDS011;56185;48.526;9.044;2023-07-08T13:54:34;3.47;;;1.60;;
69083;SDS011;56185;48.526;9.044;2023-07-08T13:57:08;3.50;;;1.60;;
69083;SDS011;56185;48.526;9.044;2023-07-08T13:59:39;3.35;;;1.50;;
69083;SDS011;56185;48.526;9.044;2023-07-08T14:02:13;4.57;;;1.60;;
69083;SDS011;56185;48.526;9.044;2023-07-08T14:04:49;2.65;;;1.30;;
69083;SDS011;56185;48.526;9.044;2023-07-08T14:07:16;4.28;;;1.60;;
69083;SDS011;56185;48.526;9.044;2023-07-08T14:09:43;2.15;;;1.50;;
69083;SDS011;56185;48.526;9.044;2023-07-08T14:12:09;4.57;;;1.70;;
69083;SDS011;56185;48.526;9.044;2023-07-08T14:14:34;2.60;;;1.40;;
69083;SDS011;56185;48.526;9.044;2023-07-08T14:16:59;3.93;;;1.77;;
69083;SDS011;56185;48.526;9.044;2023-07-08T14:19:30;2.40;;;1.50;;
69083;SDS011;56185;48.526;9.044;2023-07-08T14:22:06;2.63;;;1.55;;
69083;SDS011;56185;48.526;9.044;2023-07-08T14:24:38;3.25;;;1.50;;
69083;SDS011;56185;48.526;9.044;2023-07-08T14:27:04;2.60;;;1.40;;
69083;SDS011;56185;48.526;9.044;2023-07-08T14:29:29;2.60;;;1.40;;
69083;SDS011;56185;48.526;9.044;2023-07-08T14:31:54;3.60;;;1.60;;
69083;SDS011;56185;48.526;9.044;2023-07-08T14:34:24;4.13;;;1.53;;
69083;SDS011;56185;48.526;9.044;2023-07-08T14:36:51;2.75;;;1.52;;
69083;SDS011;56185;48.526;9.044;2023-07-08T14:39:16;3.45;;;1.60;;
69083;SDS011;56185;48.526;9.044;2023-07-08T14:41:43;2.83;;;1.50;;
69083;SDS011;56185;48.526;9.044;2023-07-08T14:46:49;2.55;;;1.23;;
69083;SDS011;56185;48.526;9.044;2023-07-08T14:49:16;3.63;;;1.52;;
69083;SDS011;56185;48.526;9.044;2023-07-08T14:51:43;3.40;;;1.60;;
69083;SDS011;56185;48.526;9.044;2023-07-08T14:54:09;3.17;;;1.50;;
69083;SDS011;56185;48.526;9.044;2023-07-08T14:56:35;2.47;;;1.40;;
69083;SDS011;56185;48.526;9.044;2023-07-08T14:59:01;3.60;;;1.55;;
69083;SDS011;56185;48.526;9.044;2023-07-08T15:01:26;3.03;;;1.60;;
69083;SDS011;56185;48.526;9.044;2023-07-08T15:03:51;2.35;;;1.30;;
69083;SDS011;56185;48.526;9.044;2023-07-08T15:06:16;2.73;;;1.30;;
69083;SDS011;56185;48.526;9.044;2023-07-08T15:08:42;2.83;;;1.40;;
69083;SDS011;56185;48.526;9.044;2023-07-08T15:11:11;3.90;;;1.52;;
69083;SDS011;56185;48.526;9.044;2023-07-08T15:13:40;4.22;;;1.67;;
69083;SDS011;56185;48.526;9.044;2023-07-08T15:16:10;3.08;;;1.50;;
69083;SDS011;56185;48.526;9.044;2023-07-08T15:18:41;4.28;;;1.40;;
69083;SDS011;56185;48.526;9.044;2023-07-08T15:21:11;3.08;;;1.55;;
69083;SDS011;56185;48.526;9.044;2023-07-08T15:23:37;3.58;;;1.60;;
69083;SDS011;56185;48.526;9.044;2023-07-08T15:26:03;3.38;;;1.42;;
69083;SDS011;56185;48.526;9.044;2023-07-08T15:28:48;3.17;;;1.40;;
69083;SDS011;56185;48.526;9.044;2023-07-08T15:31:17;2.80;;;1.50;;
69083;SDS011;56185;48.526;9.044;2023-07-08T15:33:45;2.88;;;1.67;;
69083;SDS011;56185;48.526;9.044;2023-07-08T15:36:10;2.60;;;1.40;;
69083;SDS011;56185;48.526;9.044;2023-07-08T15:38:36;3.13;;;1.48;;
69083;SDS011;56185;48.526;9.044;2023-07-08T15:41:02;3.95;;;1.60;;
69083;SDS011;56185;48.526;9.044;2023-07-08T15:43:27;3.83;;;1.50;;
69083;SDS011;56185;48.526;9.044;2023-07-08T15:45:53;2.35;;;1.20;;
69083;SDS011;56185;48.526;9.044;2023-07-08T15:48:18;5.17;;;1.77;;
69083;SDS011;56185;48.526;9.044;2023-07-08T15:50:43;2.80;;;1.50;;
69083;SDS011;56185;48.526;9.044;2023-07-08T15:53:09;3.22;;;1.30;;
69083;SDS011;56185;48.526;9.044;2023-07-08T15:55:37;2.88;;;1.48;;
69083;SDS011;56185;48.526;9.044;2023-07-08T15:58:06;2.92;;;1.50;;
69083;SDS011;56185;48.526;9.044;2023-07-08T16:00:36;2.85;;;1.35;;
69083;SDS011;56185;48.526;9.044;2023-07-08T16:03:17;3.58;;;1.55;;
69083;SDS011;56185;48.526;9.044;2023-07-08T16:05:47;3.28;;;1.30;;
69083;SDS011;56185;48.526;9.044;2023-07-08T16:08:12;2.43;;;1.37;;
69083;SDS011;56185;48.526;9.044;2023-07-08T16:10:37;2.90;;;1.60;;
69083;SDS011;56185;48.526;9.044;2023-07-08T16:13:03;4.18;;;1.50;;
69083;SDS011;56185;48.526;9.044;2023-07-08T16:15:30;2.92;;;1.50;;
69083;SDS011;56185;48.526;9.044;2023-07-08T16:17:57;2.47;;;1.50;;
69083;SDS011;56185;48.526;9.044;2023-07-08T16:20:24;3.10;;;1.50;;
69083;SDS011;56185;48.526;9.044;2023-07-08T16:22:50;1.90;;;1.23;;
69083;SDS011;56185;48.526;9.044;2023-07-08T16:25:17;2.78;;;1.52;;
69083;SDS011;56185;48.526;9.044;2023-07-08T16:27:45;4.85;;;1.58;;
69083;SDS011;56185;48.526;9.044;2023-07-08T16:30:14;3.58;;;1.60;;
69083;SDS011;56185;48.526;9.044;2023-07-08T16:32:41;3.60;;;1.50;;
69083;SDS011;56185;48.526;9.044;2023-07-08T16:35:07;3.92;;;1.58;;
69083;SDS011;56185;48.526;9.044;2023-07-08T16:37:35;3.40;;;1.40;;
69083;SDS011;56185;48.526;9.044;2023-07-08T16:40:00;3.30;;;1.50;;
69083;SDS011;56185;48.526;9.044;2023-07-08T16:42:25;2.50;;;1.40;;
69083;SDS011;56185;48.526;9.044;2023-07-08T16:44:51;3.00;;;1.50;;
69083;SDS011;56185;48.526;9.044;2023-07-08T16:47:16;3.67;;;1.35;;
69083;SDS011;56185;48.526;9.044;2023-07-08T16:49:41;3.67;;;1.57;;
69083;SDS011;56185;48.526;9.044;2023-07-08T16:52:10;2.83;;;1.50;;
69083;SDS011;56185;48.526;9.044;2023-07-08T16:54:38;3.97;;;1.77;;
69083;SDS011;56185;48.526;9.044;2023-07-08T16:57:04;2.67;;;1.50;;
69083;SDS011;56185;48.526;9.044;2023-07-08T16:59:29;2.80;;;1.60;;
69083;SDS011;56185;48.526;9.044;2023-07-08T17:01:54;3.63;;;1.37;;
69083;SDS011;56185;48.526;9.044;2023-07-08T17:04:20;2.40;;;1.40;;
69083;SDS011;56185;48.526;9.044;2023-07-08T17:06:45;2.57;;;1.40;;
69083;SDS011;56185;48.526;9.044;2023-07-08T17:09:10;3.33;;;1.50;;
69083;SDS011;56185;48.526;9.044;2023-07-08T17:11:36;2.53;;;1.40;;
69083;SDS011;56185;48.526;9.044;2023-07-08T17:14:01;3.20;;;1.47;;
69083;SDS011;56185;48.526;9.044;2023-07-08T17:16:31;4.60;;;1.67;;
69083;SDS011;56185;48.526;9.044;2023-07-08T17:18:57;3.05;;;1.60;;
69083;SDS011;56185;48.526;9.044;2023-07-08T17:21:23;4.40;;;2.17;;
69083;SDS011;56185;48.526;9.044;2023-07-08T17:23:48;2.88;;;1.70;;
69083;SDS011;56185;48.526;9.044;2023-07-08T17:26:13;3.53;;;1.60;;
69083;SDS011;56185;48.526;9.044;2023-07-08T17:28:39;3.20;;;1.40;;
69083;SDS011;56185;48.526;9.044;2023-07-08T17:31:04;2.83;;;1.57;;
69083;SDS011;56185;48.526;9.044;2023-07-08T17:33:33;4.60;;;1.65;;
69083;SDS011;56185;48.526;9.044;2023-07-08T17:35:58;3.83;;;1.90;;
69083;SDS011;56185;48.526;9.044;2023-07-08T17:41:22;4.05;;;1.77;;
69083;SDS011;56185;48.526;9.044;2023-07-08T17:43:47;3.57;;;1.60;;
69083;SDS011;56185;48.526;9.044;2023-07-08T17:46:16;4.13;;;1.50;;
69083;SDS011;56185;48.526;9.044;2023-07-08T17:48:44;3.67;;;1.63;;
69083;SDS011;56185;48.526;9.044;2023-07-08T17:51:10;3.38;;;1.60;;
69083;SDS011;56185;48.526;9.044;2023-07-08T17:53:35;3.63;;;1.80;;
69083;SDS011;56185;48.526;9.044;2023-07-08T17:56:01;4.90;;;2.00;;
69083;SDS011;56185;48.526;9.044;2023-07-08T17:58:27;4.13;;;1.80;;
69083;SDS011;56185;48.526;9.044;2023-07-08T18:00:56;5.35;;;2.25;;
69083;SDS011;56185;48.526;9.044;2023-07-08T18:03:22;7.27;;;2.70;;
69083;SDS011;56185;48.526;9.044;2023-07-08T18:05:47;4.10;;;1.90;;
69083;SDS011;56185;48.526;9.044;2023-07-08T18:08:12;3.10;;;1.80;;
69083;SDS011;56185;48.526;9.044;2023-07-08T18:10:37;8.60;;;2.43;;
69083;SDS011;56185;48.526;9.044;2023-07-08T18:13:04;6.47;;;1.95;;
69083;SDS011;56185;48.526;9.044;2023-07-08T18:15:38;4.70;;;1.88;;
69083;SDS011;56185;48.526;9.044;2023-07-08T18:18:05;3.72;;;1.88;;
69083;SDS011;56185;48.526;9.044;2023-07-08T18:20:34;3.13;;;1.90;;
69083;SDS011;56185;48.526;9.044;2023-07-08T18:23:01;4.68;;;2.00;;
69083;SDS011;56185;48.526;9.044;2023-07-08T18:25:28;4.63;;;1.60;;
69083;SDS011;56185;48.526;9.044;2023-07-08T18:27:53;5.63;;;2.07;;
69083;SDS011;56185;48.526;9.044;2023-07-08T18:30:19;5.85;;;1.70;;
69083;SDS011;56185;48.526;9.044;2023-07-08T18:32:46;4.35;;;2.03;;
69083;SDS011;56185;48.526;9.044;2023-07-08T18:35:22;3.97;;;1.90;;
69083;SDS011;56185;48.526;9.044;2023-07-08T18:37:50;4.03;;;2.05;;
69083;SDS011;56185;48.526;9.044;2023-07-08T18:40:26;5.68;;;1.95;;
69083;SDS011;56185;48.526;9.044;2023-07-08T18:42:53;4.72;;;2.17;;
69083;SDS011;56185;48.526;9.044;2023-07-08T18:45:22;22.27;;;7.72;;
69083;SDS011;56185;48.526;9.044;2023-07-08T18:47:47;16.37;;;7.10;;
69083;SDS011;56185;48.526;9.044;2023-07-08T18:50:12;15.35;;;7.60;;
69083;SDS011;56185;48.526;9.044;2023-07-08T18:52:38;8.43;;;3.90;;
69083;SDS011;56185;48.526;9.044;2023-07-08T18:55:04;3.53;;;2.00;;
69083;SDS011;56185;48.526;9.044;2023-07-08T18:57:30;4.25;;;2.28;;
69083;SDS011;56185;48.526;9.044;2023-07-08T18:59:55;4.47;;;2.13;;
69083;SDS011;56185;48.526;9.044;2023-07-08T19:05:22;4.78;;;2.33;;
69083;SDS011;56185;48.526;9.044;2023-07-08T19:07:48;5.72;;;2.75;;
69083;SDS011;56185;48.526;9.044;2023-07-08T19:10:15;5.68;;;2.53;;
69083;SDS011;56185;48.526;9.044;2023-07-08T19:12:42;4.10;;;2.40;;
69083;SDS011;56185;48.526;9.044;2023-07-08T19:15:21;6.55;;;2.42;;
69083;SDS011;56185;48.526;9.044;2023-07-08T19:17:50;5.65;;;2.17;;
69083;SDS011;56185;48.526;9.044;2023-07-08T19:20:17;3.92;;;2.10;;
69083;SDS011;56185;48.526;9.044;2023-07-08T19:22:44;5.72;;;2.10;;
69083;SDS011;56185;48.526;9.044;2023-07-08T19:25:22;3.85;;;2.08;;
69083;SDS011;56185;48.526;9.044;2023-07-08T19:27:48;6.80;;;2.50;;
69083;SDS011;56185;48.526;9.044;2023-07-08T19:30:14;4.45;;;2.30;;
69083;SDS011;56185;48.526;9.044;2023-07-08T19:32:42;4.10;;;2.22;;
69083;SDS011;56185;48.526;9.044;2023-07-08T19:35:22;4.70;;;2.28;;
69083;SDS011;56185;48.526;9.044;2023-07-08T19:37:49;5.40;;;2.50;;
69083;SDS011;56185;48.526;9.044;2023-07-08T19:40:16;5.30;;;2.35;;
69083;SDS011;56185;48.526;9.044;2023-07-08T19:42:45;5.38;;;2.28;;
69083;SDS011;56185;48.526;9.044;2023-07-08T19:47:42;4.22;;;2.30;;
69083;SDS011;56185;48.526;9.044;2023-07-08T19:50:08;4.72;;;2.20;;
69083;SDS011;56185;48.526;9.044;2023-07-08T19:52:34;6.82;;;2.47;;
69083;SDS011;56185;48.526;9.044;2023-07-08T19:54:59;4.57;;;2.22;;
69083;SDS011;56185;48.526;9.044;2023-07-08T19:57:25;4.57;;;2.40;;
69083;SDS011;56185;48.526;9.044;2023-07-08T19:59:50;4.28;;;2.33;;
69083;SDS011;56185;48.526;9.044;2023-07-08T20:02:16;4.10;;;2.50;;
69083;SDS011;56185;48.526;9.044;2023-07-08T20:04:42;6.57;;;2.50;;
69083;SDS011;56185;48.526;9.044;2023-07-08T20:07:10;5.30;;;2.47;;
69083;SDS011;56185;48.526;9.044;2023-07-08T20:09:37;4.88;;;2.38;;
69083;SDS011;56185;48.526;9.044;2023-07-08T20:12:02;4.53;;;2.40;;
69083;SDS011;56185;48.526;9.044;2023-07-08T20:14:28;6.28;;;2.65;;
69083;SDS011;56185;48.526;9.044;2023-07-08T20:16:53;5.10;;;2.50;;
69083;SDS011;56185;48.526;9.044;2023-07-08T20:19:19;4.40;;;2.45;;
69083;SDS011;56185;48.526;9.044;2023-07-08T20:21:46;7.32;;;3.42;;
69083;SDS011;56185;48.526;9.044;2023-07-08T20:24:11;4.75;;;2.53;;
69083;SDS011;56185;48.526;9.044;2023-07-08T20:26:37;7.18;;;3.53;;
69083;SDS011;56185;48.526;9.044;2023-07-08T20:29:05;6.20;;;2.92;;
69083;SDS011;56185;48.526;9.044;2023-07-08T20:31:31;7.13;;;3.30;;
69083;SDS011;56185;48.526;9.044;2023-07-08T20:33:57;5.50;;;2.80;;
69083;SDS011;56185;48.526;9.044;2023-07-08T20:36:22;5.63;;;2.50;;
69083;SDS011;56185;48.526;9.044;2023-07-08T20:38:49;5.38;;;2.40;;
69083;SDS011;56185;48.526;9.044;2023-07-08T20:41:15;6.22;;;2.50;;
69083;SDS011;56185;48.526;9.044;2023-07-08T20:43:40;7.70;;;2.73;;
69083;SDS011;56185;48.526;9.044;2023-07-08T20:46:13;5.75;;;3.13;;
69083;SDS011;56185;48.526;9.044;2023-07-08T20:48:40;5.35;;;3.40;;
69083;SDS011;56185;48.526;9.044;2023-07-08T20:51:06;7.50;;;4.00;;
69083;SDS011;56185;48.526;9.044;2023-07-08T20:53:32;5.60;;;2.53;;
69083;SDS011;56185;48.526;9.044;2023-07-08T20:55:57;6.20;;;2.58;;
69083;SDS011;56185;48.526;9.044;2023-07-08T21:07:32;7.35;;;2.70;;
69083;SDS011;56185;48.526;9.044;2023-07-08T21:09:57;9.60;;;3.42;;
69083;SDS011;56185;48.526;9.044;2023-07-08T21:12:22;5.83;;;3.37;;
69083;SDS011;56185;48.526;9.044;2023-07-08T21:14:48;6.80;;;3.20;;
69083;SDS011;56185;48.526;9.044;2023-07-08T21:17:15;7.40;;;3.10;;
69083;SDS011;56185;48.526;9.044;2023-07-08T21:19:45;8.25;;;2.88;;
69083;SDS011;56185;48.526;9.044;2023-07-08T21:22:11;6.35;;;2.85;;
69083;SDS011;56185;48.526;9.044;2023-07-08T21:24:37;5.70;;;3.05;;
69083;SDS011;56185;48.526;9.044;2023-07-08T21:27:03;5.65;;;2.92;;
69083;SDS011;56185;48.526;9.044;2023-07-08T21:29:29;7.50;;;3.15;;
69083;SDS011;56185;48.526;9.044;2023-07-08T21:31:57;7.07;;;3.17;;
69083;SDS011;56185;48.526;9.044;2023-07-08T21:34:28;8.02;;;3.63;;
69083;SDS011;56185;48.526;9.044;2023-07-08T21:36:57;7.05;;;3.40;;
69083;SDS011;56185;48.526;9.044;2023-07-08T21:39:38;4.85;;;3.10;;
69083;SDS011;56185;48.526;9.044;2023-07-08T21:42:04;6.75;;;3.20;;
69083;SDS011;56185;48.526;9.044;2023-07-08T21:44:33;5.10;;;2.80;;
69083;SDS011;56185;48.526;9.044;2023-07-08T21:46:59;6.67;;;2.67;;
69083;SDS011;56185;48.526;9.044;2023-07-08T21:49:24;6.50;;;3.13;;
69083;SDS011;56185;48.526;9.044;2023-07-08T21:51:49;4.70;;;2.63;;
69083;SDS011;56185;48.526;9.044;2023-07-08T21:54:15;5.33;;;2.83;;
69083;SDS011;56185;48.526;9.044;2023-07-08T21:56:40;4.97;;;2.75;;
69083;SDS011;56185;48.526;9.044;2023-07-08T21:59:13;4.68;;;2.60;;
69083;SDS011;56185;48.526;9.044;2023-07-08T22:01:41;5.20;;;3.20;;
69083;SDS011;56185;48.526;9.044;2023-07-08T22:04:08;7.18;;;2.80;;
69083;SDS011;56185;48.526;9.044;2023-07-08T22:06:36;6.18;;;2.97;;
69083;SDS011;56185;48.526;9.044;2023-07-08T22:09:01;6.13;;;3.00;;
69083;SDS011;56185;48.526;9.044;2023-07-08T22:11:28;5.88;;;2.92;;
69083;SDS011;56185;48.526;9.044;2023-07-08T22:13:58;5.68;;;2.63;;
69083;SDS011;56185;48.526;9.044;2023-07-08T22:16:24;5.28;;;2.75;;
69083;SDS011;56185;48.526;9.044;2023-07-08T22:18:51;6.70;;;3.13;;
69083;SDS011;56185;48.526;9.044;2023-07-08T22:23:46;5.55;;;2.80;;
69083;SDS011;56185;48.526;9.044;2023-07-08T22:26:12;5.25;;;2.47;;
69083;SDS011;56185;48.526;9.044;2023-07-08T22:28:37;5.25;;;3.40;;
69083;SDS011;56185;48.526;9.044;2023-07-08T22:31:03;5.97;;;3.00;;
69083;SDS011;56185;48.526;9.044;2023-07-08T22:33:30;4.45;;;2.67;;
69083;SDS011;56185;48.526;9.044;2023-07-08T22:35:56;7.33;;;2.90;;
69083;SDS011;56185;48.526;9.044;2023-07-08T22:38:21;6.70;;;2.90;;
69083;SDS011;56185;48.526;9.044;2023-07-08T22:40:47;6.00;;;3.00;;
69083;SDS011;56185;48.526;9.044;2023-07-08T22:43:24;5.88;;;2.90;;
69083;SDS011;56185;48.526;9.044;2023-07-08T22:45:51;5.90;;;2.72;;
69083;SDS011;56185;48.526;9.044;2023-07-08T22:48:17;9.13;;;2.70;;
69083;SDS011;56185;48.526;9.044;2023-07-08T22:50:42;8.10;;;2.93;;
69083;SDS011;56185;48.526;9.044;2023-07-08T22:53:11;7.07;;;2.65;;
69083;SDS011;56185;48.526;9.044;2023-07-08T22:55:39;6.28;;;2.53;;
69083;SDS011;56185;48.526;9.044;2023-07-08T22:58:20;6.03;;;2.67;;
69083;SDS011;56185;48.526;9.044;2023-07-08T23:00:47;5.57;;;3.38;;
69083;SDS011;56185;48.526;9.044;2023-07-08T23:03:13;5.20;;;3.20;;
69083;SDS011;56185;48.526;9.044;2023-07-08T23:05:39;6.15;;;4.25;;
69083;SDS011;56185;48.526;9.044;2023-07-08T23:08:08;9.00;;;3.35;;
69083;SDS011;56185;48.526;9.044;2023-07-08T23:10:37;4.38;;;2.78;;
69083;SDS011;56185;48.526;9.044;2023-07-08T23:13:02;5.90;;;3.40;;
69083;SDS011;56185;48.526;9.044;2023-07-08T23:15:27;5.23;;;3.63;;
69083;SDS011;56185;48.526;9.044;2023-07-08T23:17:53;4.60;;;2.90;;
69083;SDS011;56185;48.526;9.044;2023-07-08T23:20:19;6.67;;;3.10;;
69083;SDS011;56185;48.526;9.044;2023-07-08T23:22:45;9.02;;;3.20;;
69083;SDS011;56185;48.526;9.044;2023-07-08T23:25:11;4.43;;;3.00;;
69083;SDS011;56185;48.526;9.044;2023-07-08T23:27:37;4.63;;;2.90;;
69083;SDS011;56185;48.526;9.044;2023-07-08T23:30:04;7.38;;;2.83;;
69083;SDS011;56185;48.526;9.044;2023-07-08T23:32:31;8.43;;;3.10;;
69083;SDS011;56185;48.526;9.044;2023-07-08T23:34:56;7.27;;;2.80;;